Time;durP1;ratioP1;P1;durP2;ratioP2;P2;SDS_P1;SDS_P2;PMS_P1;PMS_P2;Temp;Humidity;BMP_temperature;BMP_pressure;BME280_temperature;BME280_humidity;BME280_pressure;Samples;Min_cycle;Max_cycle;Signal;HPM_P1;HPM_P2
2024/01/22 00:01:08;;;;;;;;;;;18.60;38.80;;;;;;5073885;28;19928;-59
2024/01/22 00:03:35;;;;;;;;;;;18.60;38.80;;;;;;5058388;28;19927;-58
2024/01/22 00:06:02;;;;;;;;;;;18.60;38.80;;;;;;5059065;28;19920;-59
2024/01/22 00:08:30;;;;;;;;;;;18.60;38.80;;;;;;5058587;28;19924;-58
2024/01/22 00:10:56;;;;;;;;;;;18.60;38.80;;;;;;5077571;28;19974;-59
2024/01/22 00:13:23;;;;;;;;;;;18.60;38.80;;;;;;5055394;28;19959;-59
2024/01/22 00:15:50;;;;;;;;;;;18.60;38.80;;;;;;5075310;28;19928;-58
2024/01/22 00:18:16;;;;;;;;;;;18.60;38.80;;;;;;5056241;28;19970;-58
2024/01/22 00:20:43;;;;;;;;;;;18.60;38.80;;;;;;5056578;28;19974;-58
2024/01/22 00:23:10;;;;;;;;;;;18.60;39.40;;;;;;5075707;28;19921;-59
2024/01/22 00:25:38;;;;;;;;;;;18.60;38.80;;;;;;5062864;28;19921;-58
2024/01/22 00:28:06;;;;;;;;;;;18.60;38.80;;;;;;5055795;28;19924;-58
2024/01/22 00:30:32;;;;;;;;;;;18.60;38.80;;;;;;5056053;28;19966;-59
2024/01/22 00:32:59;;;;;;;;;;;18.60;39.40;;;;;;5058733;28;19920;-59
2024/01/22 00:35:27;;;;;;;;;;;18.60;38.80;;;;;;5057361;28;19921;-58
2024/01/22 00:37:54;;;;;;;;;;;18.60;38.80;;;;;;5075005;28;19956;-58
2024/01/22 00:40:21;;;;;;;;;;;18.70;39.00;;;;;;5055938;28;19920;-59
2024/01/22 00:42:49;;;;;;;;;;;18.70;38.90;;;;;;5058162;28;19920;-58
2024/01/22 00:45:15;;;;;;;;;;;18.70;39.00;;;;;;5073084;28;19921;-59
2024/01/22 00:47:42;;;;;;;;;;;18.70;39.00;;;;;;5058438;28;19974;-58
2024/01/22 00:50:09;;;;;;;;;;;18.70;39.00;;;;;;5057424;28;19924;-58
2024/01/22 00:52:36;;;;;;;;;;;18.70;39.00;;;;;;5058955;28;19924;-58
2024/01/22 00:55:03;;;;;;;;;;;18.70;39.00;;;;;;5058706;28;19966;-57
2024/01/22 00:57:29;;;;;;;;;;;18.70;39.00;;;;;;5054712;28;20038;-59
2024/01/22 00:59:57;;;;;;;;;;;18.60;38.90;;;;;;5056035;28;20323;-59
2024/01/22 01:02:24;;;;;;;;;;;18.70;39.00;;;;;;5056943;28;19921;-58
2024/01/22 01:04:51;;;;;;;;;;;18.70;39.00;;;;;;5057621;28;19921;-58
2024/01/22 01:07:17;;;;;;;;;;;18.70;39.00;;;;;;5058857;28;19920;-58
2024/01/22 01:09:44;;;;;;;;;;;18.70;39.00;;;;;;5056592;28;19928;-58
2024/01/22 01:12:11;;;;;;;;;;;18.70;39.10;;;;;;5059322;28;19962;-58
2024/01/22 01:14:38;;;;;;;;;;;18.70;39.10;;;;;;5059178;28;19966;-58
2024/01/22 01:17:06;;;;;;;;;;;18.70;39.00;;;;;;5058981;28;20011;-58
2024/01/22 01:19:32;;;;;;;;;;;18.70;39.10;;;;;;5058445;28;19927;-59
2024/01/22 01:21:59;;;;;;;;;;;18.70;39.10;;;;;;5056556;28;20430;-59
2024/01/22 01:24:26;;;;;;;;;;;18.70;39.10;;;;;;5056813;28;19933;-58
2024/01/22 01:26:53;;;;;;;;;;;18.70;39.10;;;;;;5093037;28;19966;-58
2024/01/22 01:29:19;;;;;;;;;;;18.70;39.10;;;;;;5067177;28;19928;-59
2024/01/22 01:31:46;;;;;;;;;;;18.70;39.10;;;;;;5058093;28;19928;-58
2024/01/22 01:34:14;;;;;;;;;;;18.70;39.10;;;;;;5056320;28;19920;-59
2024/01/22 01:36:41;;;;;;;;;;;18.70;39.20;;;;;;5057941;28;19920;-58
2024/01/22 01:39:08;;;;;;;;;;;18.70;39.10;;;;;;5057857;28;20307;-58
2024/01/22 01:41:34;;;;;;;;;;;18.70;39.20;;;;;;5055744;28;19920;-59
2024/01/22 01:44:01;;;;;;;;;;;18.70;39.20;;;;;;5056731;28;19924;-58
2024/01/22 01:46:28;;;;;;;;;;;18.70;39.20;;;;;;5058096;28;19920;-59
2024/01/22 01:48:54;;;;;;;;;;;18.70;39.20;;;;;;5073813;28;19966;-58
2024/01/22 01:51:22;;;;;;;;;;;18.70;39.20;;;;;;5056162;28;19936;-58
2024/01/22 01:53:49;;;;;;;;;;;18.70;39.20;;;;;;5075461;28;19977;-59
2024/01/22 01:56:16;;;;;;;;;;;18.70;39.20;;;;;;5057809;28;19925;-58
2024/01/22 01:58:43;;;;;;;;;;;18.80;39.30;;;;;;5072780;28;19921;-59
2024/01/22 02:01:09;;;;;;;;;;;18.70;39.20;;;;;;5057148;28;19924;-58
2024/01/22 02:03:36;;;;;;;;;;;18.80;39.30;;;;;;5055658;28;19920;-59
2024/01/22 02:06:03;;;;;;;;;;;18.80;39.30;;;;;;5073651;28;19920;-60
2024/01/22 02:08:31;;;;;;;;;;;18.80;39.30;;;;;;5057498;28;19924;-58
2024/01/22 02:10:58;;;;;;;;;;;18.80;39.30;;;;;;5073278;28;19974;-57
2024/01/22 02:13:25;;;;;;;;;;;18.80;39.30;;;;;;5057587;28;19924;-59
2024/01/22 02:15:52;;;;;;;;;;;18.80;39.40;;;;;;5073814;28;19920;-58
2024/01/22 02:18:19;;;;;;;;;;;18.80;39.40;;;;;;5074765;28;20323;-58
2024/01/22 02:20:45;;;;;;;;;;;18.80;39.40;;;;;;5073257;28;19920;-58
2024/01/22 02:23:14;;;;;;;;;;;18.80;39.40;;;;;;5073948;28;19920;-58
2024/01/22 02:25:40;;;;;;;;;;;18.80;39.40;;;;;;5090553;28;19925;-58
2024/01/22 02:28:07;;;;;;;;;;;18.80;39.40;;;;;;5073779;28;19928;-58
2024/01/22 02:30:34;;;;;;;;;;;18.80;39.50;;;;;;5073044;28;19920;-59
2024/01/22 02:33:00;;;;;;;;;;;18.80;39.50;;;;;;5074650;28;19924;-59
2024/01/22 02:35:27;;;;;;;;;;;18.80;39.50;;;;;;5075148;28;20354;-58
2024/01/22 02:37:54;;;;;;;;;;;18.80;39.50;;;;;;5074759;28;19921;-58
2024/01/22 02:40:22;;;;;;;;;;;18.80;39.50;;;;;;5065884;28;19921;-58
2024/01/22 02:42:50;;;;;;;;;;;18.80;39.50;;;;;;5049834;28;19925;-58
2024/01/22 02:45:17;;;;;;;;;;;18.80;39.50;;;;;;5053843;28;19963;-58
2024/01/22 02:47:44;;;;;;;;;;;18.80;39.50;;;;;;5073521;28;20375;-58
2024/01/22 02:50:10;;;;;;;;;;;18.80;39.50;;;;;;5055814;28;19974;-58
2024/01/22 02:52:37;;;;;;;;;;;18.80;39.50;;;;;;5054966;28;19921;-59
2024/01/22 02:55:04;;;;;;;;;;;18.80;39.50;;;;;;5054934;28;19920;-59
2024/01/22 02:57:32;;;;;;;;;;;18.80;39.50;;;;;;5055285;28;20274;-58
2024/01/22 02:59:59;;;;;;;;;;;18.80;39.50;;;;;;5055002;28;19920;-59
2024/01/22 03:02:26;;;;;;;;;;;18.80;39.50;;;;;;5074350;28;19920;-58
2024/01/22 03:04:53;;;;;;;;;;;18.80;39.50;;;;;;5077701;28;19925;-58
2024/01/22 03:07:19;;;;;;;;;;;18.80;39.50;;;;;;5036949;28;19921;-58
2024/01/22 03:09:46;;;;;;;;;;;18.80;39.50;;;;;;5066946;28;19921;-59
2024/01/22 03:12:13;;;;;;;;;;;18.80;39.50;;;;;;5080922;28;20308;-58
2024/01/22 03:14:41;;;;;;;;;;;18.80;39.50;;;;;;5078540;28;19920;-59
2024/01/22 03:17:08;;;;;;;;;;;18.80;39.50;;;;;;5089223;28;19928;-58
2024/01/22 03:19:34;;;;;;;;;;;18.80;39.50;;;;;;5060786;28;19921;-58
2024/01/22 03:22:01;;;;;;;;;;;18.80;39.50;;;;;;5067062;28;19943;-58
2024/01/22 03:24:28;;;;;;;;;;;18.80;39.50;;;;;;5058343;28;20266;-59
2024/01/22 03:26:55;;;;;;;;;;;18.80;39.60;;;;;;5041432;28;19924;-58
2024/01/22 03:29:21;;;;;;;;;;;18.80;39.60;;;;;;5064509;28;19973;-58
2024/01/22 03:31:49;;;;;;;;;;;18.80;39.60;;;;;;5061488;28;19965;-59
2024/01/22 03:34:16;;;;;;;;;;;18.80;39.60;;;;;;5078127;28;19924;-59
2024/01/22 03:36:43;;;;;;;;;;;18.80;39.60;;;;;;5060959;28;19924;-57
2024/01/22 03:39:10;;;;;;;;;;;18.80;39.60;;;;;;5065735;28;19982;-57
2024/01/22 03:41:36;;;;;;;;;;;18.80;39.60;;;;;;5098773;28;19919;-57
2024/01/22 03:44:05;;;;;;;;;;;18.80;39.60;;;;;;5067003;28;19974;-57
2024/01/22 03:46:31;;;;;;;;;;;18.80;39.60;;;;;;5060519;28;20018;-56
2024/01/22 03:49:00;;;;;;;;;;;18.90;39.60;;;;;;5074704;28;19920;-57
2024/01/22 03:51:28;;;;;;;;;;;18.80;39.60;;;;;;5079738;28;20271;-57
2024/01/22 03:53:55;;;;;;;;;;;18.80;39.60;;;;;;5080206;28;19920;-57
2024/01/22 03:56:22;;;;;;;;;;;18.90;39.70;;;;;;5097946;28;19920;-56
2024/01/22 03:58:48;;;;;;;;;;;18.80;39.60;;;;;;5090372;28;19924;-57
2024/01/22 04:01:19;;;;;;;;;;;18.90;39.70;;;;;;5090304;28;19946;-56
2024/01/22 04:03:46;;;;;;;;;;;18.90;39.70;;;;;;5050184;28;19924;-56
2024/01/22 04:06:14;;;;;;;;;;;18.90;39.70;;;;;;5071205;28;19920;-56
2024/01/22 04:08:40;;;;;;;;;;;18.90;39.80;;;;;;5079857;28;19924;-57
2024/01/22 04:11:07;;;;;;;;;;;18.80;39.70;;;;;;5060812;28;20018;-57
2024/01/22 04:13:34;;;;;;;;;;;18.90;39.80;;;;;;5071045;28;19919;-56
2024/01/22 04:16:00;;;;;;;;;;;18.90;39.80;;;;;;5059718;28;19986;-57
2024/01/22 04:18:27;;;;;;;;;;;18.90;39.80;;;;;;5071714;28;19921;-56
2024/01/22 04:20:54;;;;;;;;;;;18.80;39.70;;;;;;5079182;28;19927;-57
2024/01/22 04:23:22;;;;;;;;;;;18.90;39.80;;;;;;5086845;28;19931;-57
2024/01/22 04:25:49;;;;;;;;;;;18.90;39.80;;;;;;5077606;28;19970;-56
2024/01/22 04:28:16;;;;;;;;;;;18.90;39.80;;;;;;5079244;28;19923;-57
2024/01/22 04:30:43;;;;;;;;;;;18.90;39.80;;;;;;5095650;28;19950;-57
2024/01/22 04:33:10;;;;;;;;;;;18.90;40.40;;;;;;5086676;28;19931;-56
2024/01/22 04:35:37;;;;;;;;;;;18.90;39.80;;;;;;5068495;28;19927;-57
2024/01/22 04:38:03;;;;;;;;;;;18.90;39.80;;;;;;5071461;28;19965;-57
2024/01/22 04:40:32;;;;;;;;;;;18.80;39.70;;;;;;5081334;28;19920;-57
2024/01/22 04:42:59;;;;;;;;;;;18.90;39.90;;;;;;5077814;28;19924;-56
2024/01/22 04:45:25;;;;;;;;;;;18.90;39.80;;;;;;5094208;28;19920;-57
2024/01/22 04:47:52;;;;;;;;;;;18.90;39.90;;;;;;5073280;28;19921;-57
2024/01/22 04:50:19;;;;;;;;;;;18.90;39.90;;;;;;5077049;28;19921;-56
2024/01/22 04:52:45;;;;;;;;;;;18.90;39.90;;;;;;5069574;28;19969;-57
2024/01/22 04:55:12;;;;;;;;;;;18.90;39.90;;;;;;5068109;28;19943;-57
2024/01/22 04:57:41;;;;;;;;;;;18.90;39.90;;;;;;5076562;28;19959;-56
2024/01/22 05:00:08;;;;;;;;;;;18.90;39.90;;;;;;5055063;28;19920;-56
2024/01/22 05:02:35;;;;;;;;;;;18.90;39.90;;;;;;5065540;28;19967;-57
2024/01/22 05:05:01;;;;;;;;;;;18.90;39.90;;;;;;5075172;28;19924;-56
2024/01/22 05:07:28;;;;;;;;;;;18.90;39.90;;;;;;5079175;28;19920;-56
2024/01/22 05:09:56;;;;;;;;;;;18.90;39.90;;;;;;5075833;28;19923;-56
2024/01/22 05:12:23;;;;;;;;;;;18.90;39.90;;;;;;5096100;28;19927;-57
2024/01/22 05:14:51;;;;;;;;;;;18.90;40.50;;;;;;5091793;28;19920;-56
2024/01/22 05:17:18;;;;;;;;;;;18.90;39.90;;;;;;5078469;28;19969;-56
2024/01/22 05:19:44;;;;;;;;;;;18.90;39.90;;;;;;5078257;28;19921;-56
2024/01/22 05:22:11;;;;;;;;;;;18.90;39.90;;;;;;5052775;28;19969;-56
2024/01/22 05:24:38;;;;;;;;;;;18.90;39.90;;;;;;5076110;28;19926;-57
2024/01/22 05:27:05;;;;;;;;;;;18.90;39.90;;;;;;5078623;28;19967;-57
2024/01/22 05:29:32;;;;;;;;;;;18.90;40.00;;;;;;5057580;28;20019;-56
2024/01/22 05:32:02;;;;;;;;;;;18.90;40.00;;;;;;5088420;28;19920;-57
2024/01/22 05:34:28;;;;;;;;;;;18.90;40.00;;;;;;5039163;28;20009;-57
2024/01/22 05:36:56;;;;;;;;;;;18.90;40.00;;;;;;5057323;28;19920;-57
2024/01/22 05:39:22;;;;;;;;;;;18.90;40.00;;;;;;5077268;28;20035;-56
2024/01/22 05:41:49;;;;;;;;;;;18.90;40.00;;;;;;5075463;28;19924;-57
2024/01/22 05:44:16;;;;;;;;;;;18.90;40.00;;;;;;5078107;28;19949;-56
2024/01/22 05:46:42;;;;;;;;;;;18.90;40.00;;;;;;5059810;28;19921;-56
2024/01/22 05:49:11;;;;;;;;;;;18.90;40.00;;;;;;5076045;28;19924;-57
2024/01/22 05:51:36;;;;;;;;;;;18.90;40.00;;;;;;5096151;28;19927;-57
2024/01/22 05:54:03;;;;;;;;;;;18.90;40.00;;;;;;5064519;28;19920;-57
2024/01/22 05:56:31;;;;;;;;;;;18.90;40.00;;;;;;5094011;28;19973;-56
2024/01/22 05:58:57;;;;;;;;;;;18.90;40.00;;;;;;5078714;28;19920;-57
2024/01/22 06:01:25;;;;;;;;;;;18.90;40.00;;;;;;5053942;28;20072;-56
2024/01/22 06:03:51;;;;;;;;;;;18.90;40.10;;;;;;5037794;28;19974;-56
2024/01/22 06:06:19;;;;;;;;;;;18.90;40.10;;;;;;5045285;28;19927;-56
2024/01/22 06:08:47;;;;;;;;;;;18.90;40.60;;;;;;5074788;28;19925;-56
2024/01/22 06:11:14;;;;;;;;;;;18.90;40.10;;;;;;5058335;28;19955;-56
2024/01/22 06:13:41;;;;;;;;;;;18.90;40.10;;;;;;5058034;28;19920;-56
2024/01/22 06:16:09;;;;;;;;;;;18.90;40.10;;;;;;5075015;28;20358;-57
2024/01/22 06:18:36;;;;;;;;;;;18.90;40.10;;;;;;5057550;28;19921;-57
2024/01/22 06:21:02;;;;;;;;;;;18.90;40.10;;;;;;5086711;28;19974;-56
2024/01/22 06:23:31;;;;;;;;;;;18.90;40.10;;;;;;5073438;28;19920;-56
2024/01/22 06:25:57;;;;;;;;;;;18.90;40.10;;;;;;5072168;28;19921;-56
2024/01/22 06:28:24;;;;;;;;;;;18.90;40.10;;;;;;5057776;28;19970;-57
2024/01/22 06:30:51;;;;;;;;;;;18.90;40.20;;;;;;5055684;28;19920;-57
2024/01/22 06:33:18;;;;;;;;;;;18.90;40.20;;;;;;5074182;28;19966;-57
2024/01/22 06:35:44;;;;;;;;;;;18.90;40.20;;;;;;5054617;28;19939;-56
2024/01/22 06:38:11;;;;;;;;;;;18.90;40.20;;;;;;5052012;28;20192;-57
2024/01/22 06:40:39;;;;;;;;;;;18.90;40.20;;;;;;5077329;28;19950;-56
2024/01/22 06:43:07;;;;;;;;;;;18.90;40.20;;;;;;5063426;28;19927;-57
2024/01/22 06:45:34;;;;;;;;;;;18.90;40.20;;;;;;5081617;28;20071;-57
2024/01/22 06:48:01;;;;;;;;;;;18.90;40.20;;;;;;5080090;28;19925;-56
2024/01/22 06:50:28;;;;;;;;;;;18.90;40.20;;;;;;5082741;28;19981;-56
2024/01/22 06:52:54;;;;;;;;;;;18.90;40.20;;;;;;5082894;28;19932;-57
2024/01/22 06:55:21;;;;;;;;;;;18.90;40.20;;;;;;5080419;28;19993;-57
2024/01/22 06:57:49;;;;;;;;;;;18.90;40.30;;;;;;5070562;28;19925;-56
2024/01/22 07:00:19;;;;;;;;;;;18.90;40.20;;;;;;5070404;28;19921;-57
2024/01/22 07:02:46;;;;;;;;;;;18.90;40.20;;;;;;5067637;28;19952;-57
2024/01/22 07:05:12;;;;;;;;;;;18.90;40.20;;;;;;5051304;28;20011;-57
2024/01/22 07:07:39;;;;;;;;;;;18.90;40.10;;;;;;5050205;28;19920;-56
2024/01/22 07:10:07;;;;;;;;;;;18.90;40.10;;;;;;5069987;28;20368;-56
2024/01/22 07:12:34;;;;;;;;;;;18.90;40.10;;;;;;5052580;28;19990;-56
2024/01/22 07:15:04;;;;;;;;;;;18.90;40.20;;;;;;5068397;28;19920;-57
2024/01/22 07:17:31;;;;;;;;;;;18.90;40.10;;;;;;5069550;28;19966;-56
2024/01/22 07:19:57;;;;;;;;;;;19.00;40.20;;;;;;5070106;28;19921;-57
2024/01/22 07:22:24;;;;;;;;;;;18.90;40.10;;;;;;5053758;28;19925;-57
2024/01/22 07:24:51;;;;;;;;;;;18.90;40.10;;;;;;5070165;28;19943;-57
2024/01/22 07:27:18;;;;;;;;;;;19.00;40.20;;;;;;5049620;28;19921;-48
2024/01/22 07:29:44;;;;;;;;;;;19.00;40.20;;;;;;5051185;28;20443;-51
2024/01/22 07:32:13;;;;;;;;;;;19.00;40.20;;;;;;5055028;28;19928;-50
2024/01/22 07:34:39;;;;;;;;;;;19.00;40.30;;;;;;5050250;28;19947;-50
2024/01/22 07:37:06;;;;;;;;;;;18.90;40.30;;;;;;5055506;28;20440;-47
2024/01/22 07:39:33;;;;;;;;;;;19.00;40.50;;;;;;5050155;28;19924;-50
2024/01/22 07:42:00;;;;;;;;;;;19.00;40.60;;;;;;5058321;28;19987;-59
2024/01/22 07:44:27;;;;;;;;;;;19.00;40.60;;;;;;5049651;28;19921;-58
2024/01/22 07:46:53;;;;;;;;;;;19.00;40.60;;;;;;5073687;28;19978;-59
2024/01/22 07:49:22;;;;;;;;;;;19.00;40.60;;;;;;5064274;28;19920;-59
2024/01/22 07:51:48;;;;;;;;;;;19.00;40.60;;;;;;5055427;28;19920;-59
2024/01/22 07:54:15;;;;;;;;;;;19.00;40.60;;;;;;5059788;28;20720;-59
2024/01/22 07:56:42;;;;;;;;;;;19.00;40.60;;;;;;5072023;28;19920;-59
2024/01/22 07:59:08;;;;;;;;;;;19.00;40.50;;;;;;5057929;28;19920;-59
2024/01/22 08:01:35;;;;;;;;;;;19.00;40.50;;;;;;5073499;28;19928;-57
2024/01/22 08:04:03;;;;;;;;;;;19.00;40.50;;;;;;5085232;28;19924;-58
2024/01/22 08:06:31;;;;;;;;;;;19.00;40.50;;;;;;5061009;28;19929;-59
2024/01/22 08:08:58;;;;;;;;;;;19.00;40.50;;;;;;5074175;28;19920;-58
2024/01/22 08:11:25;;;;;;;;;;;19.00;40.50;;;;;;5061265;28;19921;-59
2024/01/22 08:13:51;;;;;;;;;;;19.00;40.50;;;;;;5062136;28;19966;-59
2024/01/22 08:16:19;;;;;;;;;;;19.00;40.50;;;;;;5063711;28;19927;-59
2024/01/22 08:18:47;;;;;;;;;;;19.00;40.50;;;;;;5072806;28;19920;-58
2024/01/22 08:21:14;;;;;;;;;;;19.00;40.50;;;;;;5055887;28;19928;-59
2024/01/22 08:23:42;;;;;;;;;;;19.00;40.50;;;;;;5072041;28;19924;-58
2024/01/22 08:26:09;;;;;;;;;;;19.10;40.60;;;;;;5059506;28;19932;-58
2024/01/22 08:28:36;;;;;;;;;;;19.10;40.60;;;;;;5054973;28;20281;-58
2024/01/22 08:31:03;;;;;;;;;;;19.00;40.50;;;;;;5057046;28;19920;-58
2024/01/22 08:33:29;;;;;;;;;;;19.10;40.60;;;;;;5072014;28;19925;-58
2024/01/22 08:35:56;;;;;;;;;;;19.10;40.70;;;;;;5070589;28;19931;-58
2024/01/22 08:38:23;;;;;;;;;;;19.10;40.70;;;;;;5071135;28;19940;-56
2024/01/22 08:40:51;;;;;;;;;;;19.10;40.80;;;;;;5070817;28;19925;-58
2024/01/22 08:43:18;;;;;;;;;;;19.10;40.80;;;;;;5059897;28;19932;-59
2024/01/22 08:45:44;;;;;;;;;;;19.10;40.80;;;;;;5057954;28;19924;-58
2024/01/22 08:48:11;;;;;;;;;;;19.10;40.80;;;;;;5072098;28;19920;-59
2024/01/22 08:50:38;;;;;;;;;;;19.20;41.00;;;;;;5055319;28;19932;-57
2024/01/22 08:53:05;;;;;;;;;;;19.10;40.90;;;;;;5072094;28;19928;-58
2024/01/22 08:55:32;;;;;;;;;;;19.20;41.00;;;;;;5072516;28;19946;-58
2024/01/22 08:58:00;;;;;;;;;;;19.20;41.10;;;;;;5072305;28;19924;-59
2024/01/22 09:00:27;;;;;;;;;;;19.20;41.00;;;;;;5059967;28;20019;-59
2024/01/22 09:02:54;;;;;;;;;;;19.20;41.10;;;;;;5057590;28;19925;-58
2024/01/22 09:05:20;;;;;;;;;;;19.20;41.10;;;;;;5059257;28;19924;-58
2024/01/22 09:07:48;;;;;;;;;;;19.20;41.10;;;;;;5049259;28;19920;-58
2024/01/22 09:10:15;;;;;;;;;;;19.20;41.10;;;;;;5055220;28;19925;-58
2024/01/22 09:12:41;;;;;;;;;;;19.20;41.10;;;;;;5059145;28;19921;-58
2024/01/22 09:15:10;;;;;;;;;;;19.20;41.10;;;;;;5060532;28;19921;-58
2024/01/22 09:17:37;;;;;;;;;;;19.20;41.20;;;;;;5065163;28;19963;-58
2024/01/22 09:20:06;;;;;;;;;;;19.30;41.20;;;;;;5058483;28;19974;-57
2024/01/22 09:22:32;;;;;;;;;;;19.20;41.10;;;;;;5066726;28;19920;-58
2024/01/22 09:24:59;;;;;;;;;;;19.30;41.20;;;;;;5071606;28;19970;-58
2024/01/22 09:27:26;;;;;;;;;;;19.30;41.20;;;;;;5071891;28;19925;-58
2024/01/22 09:29:52;;;;;;;;;;;19.30;41.20;;;;;;5053438;28;19925;-59
2024/01/22 09:32:21;;;;;;;;;;;19.30;41.30;;;;;;5053949;28;19966;-59
2024/01/22 09:34:47;;;;;;;;;;;19.30;41.30;;;;;;5060800;28;19921;-58
2024/01/22 09:37:14;;;;;;;;;;;19.30;41.30;;;;;;5049458;28;20388;-58
2024/01/22 09:39:41;;;;;;;;;;;19.30;41.30;;;;;;5059993;28;20313;-55
2024/01/22 09:42:07;;;;;;;;;;;19.30;41.30;;;;;;5058821;28;19991;-58
2024/01/22 09:44:34;;;;;;;;;;;19.30;41.30;;;;;;5057982;28;19925;-58
2024/01/22 09:47:02;;;;;;;;;;;19.30;41.30;;;;;;5062182;28;19960;-55
2024/01/22 09:49:30;;;;;;;;;;;19.30;41.30;;;;;;5068239;28;19924;-57
2024/01/22 09:51:57;;;;;;;;;;;19.30;41.30;;;;;;5071534;28;19931;-58
2024/01/22 09:54:25;;;;;;;;;;;19.30;41.40;;;;;;5058858;28;19970;-57
2024/01/22 09:56:52;;;;;;;;;;;19.30;41.40;;;;;;5061746;28;20010;-58
2024/01/22 09:59:19;;;;;;;;;;;19.40;41.50;;;;;;5070779;28;19921;-58
2024/01/22 10:01:46;;;;;;;;;;;19.30;41.40;;;;;;5059003;28;19970;-59
2024/01/22 10:04:13;;;;;;;;;;;19.40;41.50;;;;;;5050784;28;19920;-59
2024/01/22 10:06:41;;;;;;;;;;;19.40;41.50;;;;;;5052916;28;19924;-59
2024/01/22 10:09:08;;;;;;;;;;;19.40;41.60;;;;;;5060872;28;19924;-59
2024/01/22 10:11:35;;;;;;;;;;;19.40;41.60;;;;;;5071176;28;19941;-59
2024/01/22 10:14:02;;;;;;;;;;;19.40;41.60;;;;;;5053026;28;19924;-60
2024/01/22 10:16:29;;;;;;;;;;;19.40;41.60;;;;;;5066059;28;19920;-59
2024/01/22 10:18:56;;;;;;;;;;;19.40;41.60;;;;;;5053514;28;19924;-59
2024/01/22 10:21:22;;;;;;;;;;;19.40;41.60;;;;;;5071072;28;19999;-59
2024/01/22 10:23:57;;;;;;;;;;;19.40;41.70;;;;;;5067713;28;19920;-59
2024/01/22 10:26:23;;;;;;;;;;;19.40;41.70;;;;;;5050281;28;19952;-59
2024/01/22 10:28:50;;;;;;;;;;;19.40;41.70;;;;;;5052794;28;19929;-58
2024/01/22 10:31:17;;;;;;;;;;;19.40;41.70;;;;;;5070971;28;19921;-56
2024/01/22 10:33:44;;;;;;;;;;;19.40;41.70;;;;;;5077075;28;20349;-58
2024/01/22 10:36:14;;;;;;;;;;;19.40;41.70;;;;;;5059923;28;19969;-59
2024/01/22 10:38:41;;;;;;;;;;;19.40;41.80;;;;;;5063443;28;19964;-58
2024/01/22 10:41:12;;;;;;;;;;;19.40;41.80;;;;;;5060357;28;19929;-57
2024/01/22 10:43:39;;;;;;;;;;;19.50;41.90;;;;;;5049585;28;19920;-58
2024/01/22 10:46:06;;;;;;;;;;;19.50;41.90;;;;;;5056022;28;19924;-58
2024/01/22 10:48:32;;;;;;;;;;;19.40;41.80;;;;;;5058654;28;19924;-58
2024/01/22 10:50:59;;;;;;;;;;;19.40;41.80;;;;;;5070736;28;19927;-57
2024/01/22 10:53:26;;;;;;;;;;;19.50;41.90;;;;;;5049776;28;19976;-56
2024/01/22 10:55:57;;;;;;;;;;;19.50;41.90;;;;;;5057165;28;19924;-57
2024/01/22 10:58:26;;;;;;;;;;;19.50;41.90;;;;;;5066335;28;19974;-57
2024/01/22 11:00:53;;;;;;;;;;;19.50;41.90;;;;;;5054159;28;20415;-57
2024/01/22 11:03:20;;;;;;;;;;;19.50;41.90;;;;;;5059408;28;19986;-56
2024/01/22 11:05:48;;;;;;;;;;;19.50;41.90;;;;;;5053924;28;19931;-57
2024/01/22 11:08:15;;;;;;;;;;;19.50;41.90;;;;;;5057634;28;19924;-57
2024/01/22 11:10:42;;;;;;;;;;;19.50;41.90;;;;;;5069277;28;19970;-56
2024/01/22 11:13:09;;;;;;;;;;;19.50;41.90;;;;;;5060191;28;19924;-56
2024/01/22 11:15:37;;;;;;;;;;;19.50;41.90;;;;;;5057701;28;20005;-56
2024/01/22 11:18:06;;;;;;;;;;;19.50;41.90;;;;;;5062750;28;19928;-56
2024/01/22 11:20:32;;;;;;;;;;;19.50;41.90;;;;;;5052471;28;19930;-57
2024/01/22 11:23:00;;;;;;;;;;;19.50;42.00;;;;;;5049325;28;19920;-56
2024/01/22 11:25:27;;;;;;;;;;;19.50;42.00;;;;;;5052364;28;19978;-56
2024/01/22 11:28:00;;;;;;;;;;;19.50;42.00;;;;;;5070270;28;20267;-56
2024/01/22 11:30:32;;;;;;;;;;;19.50;42.00;;;;;;5051138;28;19931;-57
2024/01/22 11:33:00;;;;;;;;;;;19.50;42.00;;;;;;5056000;28;19921;-56
2024/01/22 11:35:33;;;;;;;;;;;19.50;42.00;;;;;;5073913;28;19946;-56
2024/01/22 11:38:00;;;;;;;;;;;19.50;42.00;;;;;;5073946;28;19974;-57
2024/01/22 11:40:46;;;;;;;;;;;19.50;42.00;;;;;;5083080;28;19925;-55
2024/01/22 11:43:13;;;;;;;;;;;19.50;42.00;;;;;;5068097;28;19978;-57
2024/01/22 11:45:39;;;;;;;;;;;19.50;42.50;;;;;;5076735;28;19929;-56
2024/01/22 11:48:10;;;;;;;;;;;19.50;42.00;;;;;;5058743;28;19928;-55
2024/01/22 11:50:37;;;;;;;;;;;19.50;42.00;;;;;;5059676;28;19994;-55
2024/01/22 11:53:04;;;;;;;;;;;19.50;41.90;;;;;;5057997;28;19924;-56
2024/01/22 11:55:30;;;;;;;;;;;19.50;42.00;;;;;;5060982;28;19927;-56
2024/01/22 11:57:57;;;;;;;;;;;19.50;41.90;;;;;;5064701;28;19924;-55
2024/01/22 12:00:24;;;;;;;;;;;19.50;41.90;;;;;;5073236;28;19920;-55
2024/01/22 12:02:55;;;;;;;;;;;19.50;41.90;;;;;;5070004;28;19933;-55
2024/01/22 12:05:23;;;;;;;;;;;19.50;41.90;;;;;;5066583;28;19921;-56
2024/01/22 12:07:51;;;;;;;;;;;19.50;41.90;;;;;;5056590;28;20538;-53
2024/01/22 12:10:20;;;;;;;;;;;19.50;42.70;;;;;;5069497;28;19932;-52
2024/01/22 12:12:53;;;;;;;;;;;19.50;43.90;;;;;;5058076;28;20437;-56
2024/01/22 12:15:20;;;;;;;;;;;19.40;44.00;;;;;;5056102;28;19924;-55
2024/01/22 12:17:47;;;;;;;;;;;19.30;43.90;;;;;;5054267;28;19981;-53
2024/01/22 12:20:14;;;;;;;;;;;19.30;43.80;;;;;;5055239;28;19924;-56
2024/01/22 12:22:42;;;;;;;;;;;19.30;43.70;;;;;;5055075;28;19966;-57
2024/01/22 12:25:09;;;;;;;;;;;19.20;43.50;;;;;;5072627;28;19932;-57
2024/01/22 12:27:36;;;;;;;;;;;19.20;43.30;;;;;;5050931;28;19977;-57
2024/01/22 12:30:06;;;;;;;;;;;19.20;43.20;;;;;;5054360;28;19932;-57
2024/01/22 12:32:35;;;;;;;;;;;19.20;43.10;;;;;;5073272;28;19974;-55
2024/01/22 12:35:01;;;;;;;;;;;19.20;43.10;;;;;;5053950;28;19920;-55
2024/01/22 12:37:28;;;;;;;;;;;19.20;43.00;;;;;;5059850;28;19924;-58
2024/01/22 12:40:15;;;;;;;;;;;19.20;42.90;;;;;;5050302;28;19950;-57
2024/01/22 12:42:43;;;;;;;;;;;19.30;42.90;;;;;;5067302;28;19920;-58
2024/01/22 12:45:12;;;;;;;;;;;19.30;42.80;;;;;;5053431;28;19964;-54
2024/01/22 12:47:40;;;;;;;;;;;19.30;42.90;;;;;;5071054;28;19928;-55
2024/01/22 12:50:07;;;;;;;;;;;19.30;42.80;;;;;;5054681;28;19925;-56
2024/01/22 12:52:34;;;;;;;;;;;19.30;42.70;;;;;;5064552;28;19920;-58
2024/01/22 12:55:01;;;;;;;;;;;19.30;42.70;;;;;;5056145;28;19970;-56
2024/01/22 12:57:32;;;;;;;;;;;19.40;42.70;;;;;;5055767;28;19928;-57
2024/01/22 13:00:00;;;;;;;;;;;19.40;42.70;;;;;;5051147;28;20395;-56
2024/01/22 13:02:27;;;;;;;;;;;19.40;42.70;;;;;;5055718;28;19950;-57
2024/01/22 13:04:53;;;;;;;;;;;19.30;42.50;;;;;;5070997;28;19928;-57
2024/01/22 13:07:20;;;;;;;;;;;19.40;42.60;;;;;;5055746;28;19928;-59
2024/01/22 13:09:47;;;;;;;;;;;19.40;42.60;;;;;;5070153;28;19929;-56
2024/01/22 13:12:14;;;;;;;;;;;19.40;42.60;;;;;;5068124;28;19920;-57
2024/01/22 13:14:42;;;;;;;;;;;19.40;42.60;;;;;;5047931;28;19982;-56
2024/01/22 13:17:10;;;;;;;;;;;19.40;42.60;;;;;;5054129;28;19924;-55
2024/01/22 13:19:37;;;;;;;;;;;19.40;42.60;;;;;;5068267;28;20003;-58
2024/01/22 13:22:04;;;;;;;;;;;19.40;42.60;;;;;;5051938;28;19920;-57
2024/01/22 13:24:31;;;;;;;;;;;19.40;42.60;;;;;;5067710;28;19928;-57
2024/01/22 13:26:57;;;;;;;;;;;19.40;42.60;;;;;;5046353;28;19929;-56
2024/01/22 13:29:24;;;;;;;;;;;19.50;42.60;;;;;;5072679;28;19927;-55
2024/01/22 13:31:53;;;;;;;;;;;19.50;42.70;;;;;;5068982;28;19978;-57
2024/01/22 13:34:23;;;;;;;;;;;19.50;42.70;;;;;;5065948;28;19959;-58
2024/01/22 13:36:51;;;;;;;;;;;19.50;42.70;;;;;;5051497;28;19920;-55
2024/01/22 13:39:18;;;;;;;;;;;19.50;42.70;;;;;;5069037;28;19924;-56
2024/01/22 13:41:45;;;;;;;;;;;19.50;42.70;;;;;;5053427;28;19927;-58
2024/01/22 13:44:18;;;;;;;;;;;19.50;42.70;;;;;;5067704;28;19932;-58
2024/01/22 13:46:46;;;;;;;;;;;19.50;42.60;;;;;;5071846;28;19924;-58
2024/01/22 13:49:15;;;;;;;;;;;19.50;42.60;;;;;;5069715;28;19970;-55
2024/01/22 13:51:42;;;;;;;;;;;19.60;42.70;;;;;;5066617;28;19932;-57
2024/01/22 13:54:09;;;;;;;;;;;19.50;43.20;;;;;;5069695;28;20184;-58
2024/01/22 13:56:38;;;;;;;;;;;19.50;43.20;;;;;;5051423;28;19963;-59
2024/01/22 13:59:06;;;;;;;;;;;19.50;42.70;;;;;;5051490;28;19924;-60
2024/01/22 14:01:33;;;;;;;;;;;19.50;42.60;;;;;;5049041;28;19932;-57
2024/01/22 14:04:00;;;;;;;;;;;19.50;42.60;;;;;;5055097;28;19924;-50
2024/01/22 14:06:28;;;;;;;;;;;19.50;42.60;;;;;;5054654;28;19920;-52
2024/01/22 14:08:59;;;;;;;;;;;19.50;42.70;;;;;;5069525;28;20033;-57
2024/01/22 14:11:26;;;;;;;;;;;19.60;42.80;;;;;;5066217;28;19924;-56
2024/01/22 14:13:53;;;;;;;;;;;19.60;42.70;;;;;;5068433;28;19927;-58
2024/01/22 14:16:20;;;;;;;;;;;19.60;42.70;;;;;;5054692;28;19921;-57